createdAt,value
2023-01-22T00:01:28.397Z,2.95
2023-01-22T00:04:32.072Z,6.45
2023-01-22T00:07:34.645Z,5.05
2023-01-22T00:10:37.986Z,3.90
2023-01-22T00:13:41.032Z,6.45
2023-01-22T00:16:44.261Z,4.22
2023-01-22T00:19:46.988Z,4.15
2023-01-22T00:22:49.832Z,3.25
2023-01-22T00:26:07.616Z,3.17
2023-01-22T00:29:10.858Z,3.35
2023-01-22T00:32:13.574Z,5.37
2023-01-22T00:35:16.973Z,5.15
2023-01-22T00:38:21.122Z,3.10
2023-01-22T00:41:23.934Z,2.95
2023-01-22T00:44:26.798Z,4.35
2023-01-22T00:47:32.095Z,2.67
2023-01-22T00:50:34.834Z,3.62
2023-01-22T00:53:37.955Z,4.60
2023-01-22T00:56:40.514Z,4.00
2023-01-22T00:59:44.058Z,4.28
2023-01-22T01:03:05.254Z,2.92
2023-01-22T01:06:14.232Z,2.85
2023-01-22T01:12:19.534Z,2.17
2023-01-22T01:15:22.228Z,3.40
2023-01-22T01:18:25.567Z,4.47
2023-01-22T01:21:29.112Z,2.10
2023-01-22T01:24:32.078Z,4.47
2023-01-22T01:27:34.622Z,2.47
2023-01-22T01:30:37.579Z,3.08
2023-01-22T01:33:40.935Z,4.25
2023-01-22T01:36:49.265Z,2.55
2023-01-22T01:39:52.588Z,4.15
2023-01-22T01:42:55.624Z,2.42
2023-01-22T01:46:00.117Z,4.47
2023-01-22T01:49:03.455Z,3.10
2023-01-22T01:52:12.118Z,2.78
2023-01-22T01:55:19.493Z,3.50
2023-01-22T01:58:24.576Z,4.78
2023-01-22T02:01:28.008Z,3.25
2023-01-22T02:04:31.279Z,3.05
2023-01-22T02:07:34.249Z,3.87
2023-01-22T02:10:37.803Z,1.87
2023-01-22T02:13:47.591Z,3.62
2023-01-22T02:17:00.681Z,1.98
2023-01-22T02:20:03.586Z,1.42
2023-01-22T02:23:07.336Z,4.37
2023-01-22T02:26:10.140Z,3.53
2023-01-22T02:29:14.426Z,3.22
2023-01-22T02:32:19.006Z,1.27
2023-01-22T02:35:21.990Z,3.20
2023-01-22T02:38:25.068Z,1.65
2023-01-22T02:41:28.639Z,1.85
2023-01-22T02:44:31.559Z,2.58
2023-01-22T02:47:37.673Z,1.65
2023-01-22T02:50:41.160Z,1.98
2023-01-22T02:53:44.050Z,4.35
2023-01-22T02:56:46.720Z,2.60
2023-01-22T02:59:49.741Z,4.50
2023-01-22T03:02:52.481Z,2.10
2023-01-22T03:05:55.319Z,2.33
2023-01-22T03:09:00.370Z,3.45
2023-01-22T03:12:03.685Z,2.83
2023-01-22T03:15:25.503Z,2.00
2023-01-22T03:18:46.849Z,4.15
2023-01-22T03:21:49.908Z,1.83
2023-01-22T03:24:53.631Z,2.17
2023-01-22T03:28:18.869Z,2.40
2023-01-22T03:31:23.321Z,2.33
2023-01-22T03:34:28.308Z,2.83
2023-01-22T03:37:31.640Z,3.25
2023-01-22T03:40:34.837Z,2.03
2023-01-22T03:43:37.911Z,3.15
2023-01-22T03:46:41.554Z,3.03
2023-01-22T03:49:44.533Z,4.45
2023-01-22T03:52:47.150Z,3.83
2023-01-22T03:55:58.090Z,2.67
2023-01-22T03:59:00.793Z,2.17
2023-01-22T04:02:04.381Z,2.85
2023-01-22T04:05:11.883Z,1.80
2023-01-22T04:08:15.161Z,1.65
2023-01-22T04:11:18.744Z,2.33
2023-01-22T04:14:21.421Z,2.50
2023-01-22T04:17:26.874Z,2.15
2023-01-22T04:20:32.620Z,1.37
2023-01-22T04:23:35.656Z,2.00
2023-01-22T04:26:38.411Z,4.12
2023-01-22T04:29:41.261Z,2.15
2023-01-22T04:32:44.537Z,2.55
2023-01-22T04:35:53.078Z,2.03
2023-01-22T04:38:56.235Z,1.55
2023-01-22T04:41:59.213Z,1.73
2023-01-22T04:45:02.042Z,2.00
2023-01-22T04:48:06.267Z,1.73
2023-01-22T04:51:09.445Z,1.87
2023-01-22T04:54:12.412Z,3.35
2023-01-22T04:57:15.096Z,2.15
2023-01-22T05:00:21.338Z,3.10
2023-01-22T05:03:24.040Z,1.92
2023-01-22T05:06:26.948Z,1.80
2023-01-22T05:09:29.801Z,2.00
2023-01-22T05:12:34.307Z,2.75
2023-01-22T05:15:38.166Z,3.67
2023-01-22T05:18:41.400Z,1.40
2023-01-22T05:21:44.132Z,3.05
2023-01-22T05:24:49.124Z,2.80
2023-01-22T05:27:51.856Z,1.40
2023-01-22T05:30:55.359Z,2.62
2023-01-22T05:33:58.828Z,2.40
2023-01-22T05:37:02.597Z,1.33
2023-01-22T05:40:06.331Z,4.57
2023-01-22T05:43:09.458Z,1.50
2023-01-22T05:46:12.719Z,1.60
2023-01-22T05:49:16.699Z,4.10
2023-01-22T05:52:19.469Z,1.83
2023-01-22T05:55:23.231Z,2.03
2023-01-22T05:58:25.980Z,2.37
2023-01-22T06:01:29.459Z,2.72
2023-01-22T06:04:32.791Z,2.05
2023-01-22T06:07:35.941Z,2.97
2023-01-22T06:10:39.519Z,1.80
2023-01-22T06:13:42.589Z,2.15
2023-01-22T06:16:45.793Z,3.30
2023-01-22T06:19:48.484Z,3.05
2023-01-22T06:22:51.955Z,2.08
2023-01-22T06:25:56.798Z,2.75
2023-01-22T06:28:59.969Z,3.20
2023-01-22T06:32:03.894Z,2.70
2023-01-22T06:35:07.249Z,2.70
2023-01-22T06:38:10.303Z,3.05
2023-01-22T06:41:13.303Z,2.85
2023-01-22T06:44:19.013Z,2.70
2023-01-22T06:47:24.955Z,4.07
2023-01-22T06:50:27.551Z,3.10
2023-01-22T06:53:30.631Z,2.85
2023-01-22T06:56:33.506Z,2.25
2023-01-22T06:59:39.530Z,1.85
2023-01-22T07:02:42.146Z,2.53
2023-01-22T07:05:45.077Z,4.15
2023-01-22T07:08:47.899Z,2.50
2023-01-22T07:11:50.700Z,2.22
2023-01-22T07:14:53.257Z,1.87
2023-01-22T07:17:56.160Z,2.47
2023-01-22T07:21:03.720Z,4.22
2023-01-22T07:24:06.732Z,4.18
2023-01-22T07:27:09.326Z,4.57
2023-01-22T07:30:12.893Z,2.65
2023-01-22T07:33:15.825Z,3.33
2023-01-22T07:36:18.940Z,3.45
2023-01-22T07:39:21.617Z,3.10
2023-01-22T07:42:24.530Z,4.00
2023-01-22T07:45:27.325Z,4.78
2023-01-22T07:48:30.582Z,3.53
2023-01-22T07:51:33.289Z,2.75
2023-01-22T07:54:36.630Z,3.15
2023-01-22T07:57:39.338Z,2.75
2023-01-22T08:00:43.857Z,3.85
2023-01-22T08:03:46.709Z,3.72
2023-01-22T08:06:49.286Z,4.55
2023-01-22T08:09:52.254Z,5.32
2023-01-22T08:12:54.835Z,4.37
2023-01-22T08:15:57.832Z,6.40
2023-01-22T08:19:00.495Z,4.75
2023-01-22T08:22:04.730Z,5.75
2023-01-22T08:25:07.626Z,7.45
2023-01-22T08:28:10.481Z,3.22
2023-01-22T08:31:26.463Z,3.37
2023-01-22T08:34:30.848Z,4.12
2023-01-22T08:37:33.422Z,5.43
2023-01-22T08:40:39.570Z,7.45
2023-01-22T08:43:42.134Z,4.18
2023-01-22T08:46:45.023Z,6.60
2023-01-22T08:49:47.600Z,4.80
2023-01-22T08:52:50.508Z,4.60
2023-01-22T08:55:53.153Z,6.10
2023-01-22T08:59:00.051Z,6.57
2023-01-22T09:02:02.821Z,6.35
2023-01-22T09:05:06.190Z,4.93
2023-01-22T09:08:09.089Z,4.85
2023-01-22T09:11:12.035Z,6.12
2023-01-22T09:14:14.694Z,4.65
2023-01-22T09:17:17.519Z,5.85
2023-01-22T09:20:20.790Z,4.90
2023-01-22T09:23:23.826Z,5.25
2023-01-22T09:26:26.934Z,4.60
2023-01-22T09:29:29.756Z,3.87
2023-01-22T09:32:32.508Z,5.97
2023-01-22T09:35:35.399Z,4.20
2023-01-22T09:38:38.641Z,5.05
2023-01-22T09:41:47.393Z,7.18
2023-01-22T09:44:55.281Z,4.75
2023-01-22T09:48:02.767Z,5.37
2023-01-22T09:51:05.974Z,4.07
2023-01-22T09:54:13.014Z,6.95
2023-01-22T09:57:30.706Z,4.28
2023-01-22T10:00:46.685Z,5.03
2023-01-22T10:03:54.889Z,4.53
2023-01-22T10:07:01.073Z,4.90
2023-01-22T10:10:20.873Z,5.53
2023-01-22T10:13:27.894Z,6.78
2023-01-22T10:16:30.861Z,6.78
2023-01-22T10:19:45.340Z,8.73
2023-01-22T10:22:49.067Z,5.57
2023-01-22T10:26:00.959Z,4.97
2023-01-22T10:29:13.199Z,7.30
2023-01-22T10:32:26.193Z,5.30
2023-01-22T10:35:31.966Z,5.40
2023-01-22T10:38:34.634Z,7.20
2023-01-22T10:41:37.509Z,5.28
2023-01-22T10:44:40.095Z,5.53
2023-01-22T10:47:42.978Z,4.90
2023-01-22T10:50:46.631Z,4.93
2023-01-22T10:53:54.703Z,7.43
2023-01-22T10:57:15.667Z,5.53
2023-01-22T11:00:55.041Z,5.35
2023-01-22T11:03:57.649Z,5.95
2023-01-22T11:07:07.111Z,4.15
2023-01-22T11:10:25.829Z,6.22
2023-01-22T11:13:50.991Z,5.25
2023-01-22T11:16:58.564Z,5.68
2023-01-22T11:20:05.989Z,6.50
2023-01-22T11:23:17.509Z,5.37
2023-01-22T11:26:26.182Z,8.13
2023-01-22T11:33:19.725Z,3.92
2023-01-22T11:36:31.935Z,5.12
2023-01-22T11:40:26.629Z,6.30
2023-01-22T11:44:04.238Z,8.18
2023-01-22T11:47:26.062Z,8.18
2023-01-22T11:50:40.258Z,7.47
2023-01-22T11:54:14.854Z,7.57
2023-01-22T11:57:40.132Z,7.00
2023-01-22T12:01:09.138Z,6.03
2023-01-22T12:04:50.020Z,7.47
2023-01-22T12:08:02.627Z,7.60
2023-01-22T12:11:23.304Z,8.55
2023-01-22T12:14:38.611Z,6.45
2023-01-22T12:17:48.688Z,6.87
2023-01-22T12:21:17.949Z,10.30
2023-01-22T12:24:31.350Z,7.75
2023-01-22T12:27:52.149Z,5.43
2023-01-22T12:31:07.753Z,6.68
2023-01-22T12:34:19.181Z,9.57
2023-01-22T12:37:38.435Z,6.50
2023-01-22T12:41:03.223Z,8.25
2023-01-22T12:44:27.305Z,7.70
2023-01-22T12:47:45.626Z,10.57
2023-01-22T12:50:56.395Z,8.70
2023-01-22T12:54:17.290Z,6.37
2023-01-22T12:57:23.252Z,6.90
2023-01-22T13:00:25.837Z,9.68
2023-01-22T13:03:31.938Z,5.82
2023-01-22T13:06:41.021Z,9.30
2023-01-22T13:09:44.426Z,8.85
2023-01-22T13:12:50.179Z,6.97
2023-01-22T13:16:02.060Z,9.38
2023-01-22T13:19:25.139Z,9.23
2023-01-22T13:22:28.404Z,7.72
2023-01-22T13:25:33.179Z,8.05
2023-01-22T13:28:36.054Z,8.82
2023-01-22T13:31:38.655Z,9.23
2023-01-22T13:34:42.028Z,10.20
2023-01-22T13:37:46.063Z,8.93
2023-01-22T13:40:57.516Z,9.82
2023-01-22T13:44:01.005Z,8.13
2023-01-22T13:47:04.965Z,9.73
2023-01-22T13:50:22.509Z,9.98
2023-01-22T13:53:29.181Z,10.13
2023-01-22T13:56:34.519Z,9.40
2023-01-22T13:59:37.618Z,10.73
2023-01-22T14:02:44.525Z,8.23
2023-01-22T14:05:49.498Z,9.88
2023-01-22T14:08:56.142Z,10.70
2023-01-22T14:12:00.960Z,12.15
2023-01-22T14:15:23.789Z,12.93
2023-01-22T14:18:30.665Z,13.00
2023-01-22T14:21:34.380Z,11.27
2023-01-22T14:24:37.629Z,10.73
2023-01-22T14:27:48.658Z,11.40
2023-01-22T14:30:52.178Z,11.05
2023-01-22T14:33:54.791Z,11.95
2023-01-22T14:36:57.704Z,10.23
2023-01-22T14:40:00.404Z,11.93
2023-01-22T14:43:03.777Z,12.93
2023-01-22T14:46:08.253Z,12.32
2023-01-22T14:49:11.207Z,11.00
2023-01-22T14:52:13.848Z,12.37
2023-01-22T14:55:17.300Z,13.75
2023-01-22T14:58:19.892Z,13.70
2023-01-22T15:01:23.456Z,11.30
2023-01-22T15:04:26.487Z,11.50
2023-01-22T15:07:29.505Z,15.57
2023-01-22T15:10:33.391Z,14.45
2023-01-22T15:13:36.475Z,11.23
2023-01-22T15:16:40.655Z,10.02
2023-01-22T15:19:43.626Z,12.98
2023-01-22T15:22:46.623Z,15.55
2023-01-22T15:26:00.906Z,11.23
2023-01-22T15:29:05.956Z,11.15
2023-01-22T15:32:09.028Z,12.85
2023-01-22T15:35:11.795Z,14.38
2023-01-22T15:38:15.014Z,13.30
2023-01-22T15:41:25.872Z,10.85
2023-01-22T15:44:28.864Z,13.55
2023-01-22T15:47:31.678Z,11.00
2023-01-22T15:50:35.645Z,11.93
2023-01-22T15:53:38.696Z,14.32
2023-01-22T15:56:42.499Z,19.02
2023-01-22T15:59:45.296Z,16.45
2023-01-22T16:02:48.501Z,18.85
2023-01-22T16:05:51.749Z,16.25
2023-01-22T16:08:59.775Z,16.42
2023-01-22T16:12:03.146Z,15.40
2023-01-22T16:15:07.306Z,15.02
2023-01-22T16:18:10.213Z,17.75
2023-01-22T16:21:14.162Z,16.80
2023-01-22T16:24:17.130Z,15.00
2023-01-22T16:27:19.739Z,16.75
2023-01-22T16:30:23.405Z,12.60
2023-01-22T16:33:29.122Z,17.30
2023-01-22T16:36:33.415Z,19.58
2023-01-22T16:39:36.926Z,17.27
2023-01-22T16:42:40.166Z,20.30
2023-01-22T16:45:43.481Z,15.75
2023-01-22T16:48:46.761Z,16.35
2023-01-22T16:52:16.637Z,16.98
2023-01-22T16:55:23.979Z,15.88
2023-01-22T16:58:27.484Z,18.77
2023-01-22T17:01:31.079Z,13.80
2023-01-22T17:04:34.296Z,16.35
2023-01-22T17:07:37.399Z,14.23
2023-01-22T17:10:40.781Z,17.95
2023-01-22T17:13:44.630Z,14.15
2023-01-22T17:16:48.178Z,15.38
2023-01-22T17:19:51.481Z,16.20
2023-01-22T17:22:55.155Z,20.98
2023-01-22T17:25:58.256Z,18.83
2023-01-22T17:29:01.143Z,17.45
2023-01-22T17:32:04.483Z,15.48
2023-01-22T17:35:09.916Z,18.25
2023-01-22T17:38:13.086Z,16.95
2023-01-22T17:41:19.697Z,17.02
2023-01-22T17:44:26.241Z,16.40
2023-01-22T17:47:29.085Z,18.15
2023-01-22T17:50:32.264Z,13.77
2023-01-22T17:53:37.347Z,14.15
2023-01-22T17:56:43.126Z,16.20
2023-01-22T17:59:45.756Z,12.85
2023-01-22T18:02:50.039Z,12.60
2023-01-22T18:05:54.602Z,16.10
2023-01-22T18:08:57.794Z,16.17
2023-01-22T18:12:02.964Z,13.68
2023-01-22T18:15:06.809Z,16.60
2023-01-22T18:18:09.717Z,20.12
2023-01-22T18:21:16.557Z,16.05
2023-01-22T18:24:23.118Z,15.95
2023-01-22T18:27:26.080Z,11.55
2023-01-22T18:30:32.443Z,16.67
2023-01-22T18:33:37.383Z,14.05
2023-01-22T18:36:42.450Z,13.38
2023-01-22T18:39:45.398Z,15.50
2023-01-22T18:42:50.142Z,12.25
2023-01-22T18:45:53.219Z,12.70
2023-01-22T18:49:00.926Z,10.93
2023-01-22T18:52:04.088Z,14.87
2023-01-22T18:55:07.533Z,13.50
2023-01-22T18:58:36.075Z,15.52
2023-01-22T19:01:40.808Z,11.30
2023-01-22T19:04:43.787Z,18.15
2023-01-22T19:07:46.981Z,11.55
2023-01-22T19:10:50.273Z,11.70
2023-01-22T19:13:55.051Z,14.02
2023-01-22T19:16:57.611Z,12.55
2023-01-22T19:20:01.462Z,16.15
2023-01-22T19:23:04.845Z,14.07
2023-01-22T19:26:12.972Z,11.27
2023-01-22T19:29:17.736Z,14.55
2023-01-22T19:32:27.614Z,15.23
2023-01-22T19:35:30.533Z,11.68
2023-01-22T19:38:34.863Z,14.77
2023-01-22T19:41:39.659Z,12.75
2023-01-22T19:44:43.042Z,17.15
2023-01-22T19:47:45.859Z,13.60
2023-01-22T19:51:07.675Z,14.27
2023-01-22T19:54:11.707Z,15.90
2023-01-22T19:57:15.693Z,15.73
2023-01-22T20:00:19.123Z,15.75
2023-01-22T20:03:23.424Z,16.08
2023-01-22T20:06:28.465Z,16.92
2023-01-22T20:09:34.780Z,10.35
2023-01-22T20:12:37.987Z,12.30
2023-01-22T20:15:42.394Z,14.80
2023-01-22T20:18:45.530Z,15.18
2023-01-22T20:21:49.381Z,17.48
2023-01-22T20:24:52.255Z,15.75
2023-01-22T20:27:55.383Z,13.15
2023-01-22T20:31:01.173Z,11.98
2023-01-22T20:34:05.252Z,15.32
2023-01-22T20:37:08.109Z,12.32
2023-01-22T20:40:12.257Z,12.02
2023-01-22T20:43:19.073Z,14.82
2023-01-22T20:46:24.720Z,16.12
2023-01-22T20:49:28.240Z,16.35
2023-01-22T20:52:32.286Z,15.45
2023-01-22T20:55:36.596Z,17.37
2023-01-22T20:58:39.812Z,18.08
2023-01-22T21:01:42.928Z,12.45
2023-01-22T21:04:50.641Z,13.70
2023-01-22T21:07:53.640Z,14.18
2023-01-22T21:10:59.260Z,19.80
2023-01-22T21:14:05.147Z,14.00
2023-01-22T21:17:08.488Z,13.23
2023-01-22T21:20:12.123Z,13.57
2023-01-22T21:23:16.891Z,16.27
2023-01-22T21:26:25.600Z,15.02
2023-01-22T21:29:28.392Z,14.50
2023-01-22T21:32:31.303Z,14.52
2023-01-22T21:35:34.441Z,16.37
2023-01-22T21:38:37.957Z,16.67
2023-01-22T21:41:41.168Z,14.73
2023-01-22T21:45:02.858Z,16.85
2023-01-22T21:48:06.025Z,18.15
2023-01-22T21:51:08.644Z,17.98
2023-01-22T21:54:13.248Z,13.90
2023-01-22T21:57:16.451Z,17.05
2023-01-22T22:00:22.067Z,15.63
2023-01-22T22:03:25.322Z,17.62
2023-01-22T22:06:32.078Z,19.37
2023-01-22T22:09:35.045Z,17.75
2023-01-22T22:12:37.657Z,15.63
2023-01-22T22:15:40.469Z,18.92
2023-01-22T22:18:43.036Z,21.90
2023-01-22T22:21:46.394Z,20.20
2023-01-22T22:24:49.033Z,23.70
2023-01-22T22:27:51.991Z,21.73
2023-01-22T22:31:04.066Z,18.35
2023-01-22T22:34:06.994Z,18.58
2023-01-22T22:37:09.598Z,22.60
2023-01-22T22:40:13.522Z,19.62
2023-01-22T22:43:17.087Z,17.65
2023-01-22T22:46:26.990Z,17.12
2023-01-22T22:49:29.540Z,21.67
2023-01-22T22:52:35.346Z,14.60
2023-01-22T22:55:41.654Z,22.55
2023-01-22T22:58:44.612Z,12.85
2023-01-22T23:01:50.988Z,15.45
2023-01-22T23:04:53.871Z,15.18
2023-01-22T23:07:56.448Z,20.23
2023-01-22T23:11:01.555Z,14.38
2023-01-22T23:14:04.718Z,15.70
2023-01-22T23:17:07.515Z,15.77
2023-01-22T23:20:11.143Z,15.45
2023-01-22T23:23:16.675Z,13.62
2023-01-22T23:26:26.572Z,12.90
2023-01-22T23:29:29.707Z,9.40
2023-01-22T23:32:32.287Z,16.00
2023-01-22T23:35:35.178Z,14.75
2023-01-22T23:38:38.121Z,10.70
2023-01-22T23:41:41.707Z,15.27
2023-01-22T23:44:44.287Z,12.15
2023-01-22T23:47:47.045Z,15.80
2023-01-22T23:50:51.570Z,12.15
2023-01-22T23:53:54.874Z,14.45
2023-01-22T23:56:57.471Z,12.10
